sensor_id;sensor_type;location;lat;lon;timestamp;pressure;altitude;pressure_sealevel;temperature;humidity
30935;BME280;51033;42.648;23.292;2023-03-24T00:02:13;93932.56;;;7.86;52.80
30935;BME280;51033;42.648;23.292;2023-03-24T00:04:40;93937.25;;;7.89;52.78
30935;BME280;51033;42.648;23.292;2023-03-24T00:07:08;93928.13;;;7.81;52.51
30935;BME280;51033;42.648;23.292;2023-03-24T00:09:33;93933.03;;;7.88;52.70
30935;BME280;51033;42.648;23.292;2023-03-24T00:12:00;93937.34;;;7.84;52.57
30935;BME280;51033;42.648;23.292;2023-03-24T00:14:26;93929.91;;;7.86;52.61
30935;BME280;51033;42.648;23.292;2023-03-24T00:16:54;93932.06;;;7.84;52.73
30935;BME280;51033;42.648;23.292;2023-03-24T00:19:22;93936.38;;;7.80;52.56
30935;BME280;51033;42.648;23.292;2023-03-24T00:21:48;93940.31;;;7.82;52.66
30935;BME280;51033;42.648;23.292;2023-03-24T00:24:13;93943.25;;;7.94;52.65
30935;BME280;51033;42.648;23.292;2023-03-24T00:26:40;93943.06;;;7.91;53.02
30935;BME280;51033;42.648;23.292;2023-03-24T00:29:07;93943.59;;;7.74;53.65
30935;BME280;51033;42.648;23.292;2023-03-24T00:31:34;93938.69;;;7.67;53.96
30935;BME280;51033;42.648;23.292;2023-03-24T00:34:04;93937.09;;;7.66;53.97
30935;BME280;51033;42.648;23.292;2023-03-24T00:36:31;93937.66;;;7.63;54.24
30935;BME280;51033;42.648;23.292;2023-03-24T00:38:56;93940.03;;;7.65;54.16
30935;BME280;51033;42.648;23.292;2023-03-24T00:41:22;93932.38;;;7.63;54.34
30935;BME280;51033;42.648;23.292;2023-03-24T00:43:53;93927.38;;;7.62;54.10
30935;BME280;51033;42.648;23.292;2023-03-24T00:46:20;93920.25;;;7.62;54.47
30935;BME280;51033;42.648;23.292;2023-03-24T00:49:05;93934.16;;;7.68;54.60
30935;BME280;51033;42.648;23.292;2023-03-24T00:51:35;93933.03;;;7.74;54.20
30935;BME280;51033;42.648;23.292;2023-03-24T00:54:01;93903.91;;;7.74;53.93
30935;BME280;51033;42.648;23.292;2023-03-24T00:56:29;93915.00;;;7.76;54.02
30935;BME280;51033;42.648;23.292;2023-03-24T00:58:55;93929.50;;;7.79;54.07
30935;BME280;51033;42.648;23.292;2023-03-24T01:01:23;93923.56;;;7.68;54.39
30935;BME280;51033;42.648;23.292;2023-03-24T01:03:49;93924.25;;;7.60;54.31
30935;BME280;51033;42.648;23.292;2023-03-24T01:06:16;93924.53;;;7.58;54.73
30935;BME280;51033;42.648;23.292;2023-03-24T01:08:44;93877.03;;;7.35;54.71
30935;BME280;51033;42.648;23.292;2023-03-24T01:11:10;93918.94;;;7.60;54.74
30935;BME280;51033;42.648;23.292;2023-03-24T01:13:37;93920.25;;;7.62;54.58
30935;BME280;51033;42.648;23.292;2023-03-24T01:16:02;93912.78;;;7.64;54.52
30935;BME280;51033;42.648;23.292;2023-03-24T01:18:28;93922.97;;;7.57;54.69
30935;BME280;51033;42.648;23.292;2023-03-24T01:20:54;93908.06;;;7.48;54.60
30935;BME280;51033;42.648;23.292;2023-03-24T01:23:23;93910.09;;;7.51;54.79
30935;BME280;51033;42.648;23.292;2023-03-24T01:25:50;93923.75;;;7.58;54.68
30935;BME280;51033;42.648;23.292;2023-03-24T01:28:17;93917.25;;;7.50;54.89
30935;BME280;51033;42.648;23.292;2023-03-24T01:30:45;93920.00;;;7.45;54.79
30935;BME280;51033;42.648;23.292;2023-03-24T01:33:11;93898.03;;;7.45;54.99
30935;BME280;51033;42.648;23.292;2023-03-24T01:35:36;93913.13;;;7.44;54.81
30935;BME280;51033;42.648;23.292;2023-03-24T01:38:06;93888.81;;;7.28;54.87
30935;BME280;51033;42.648;23.292;2023-03-24T01:40:33;93908.63;;;7.45;54.98
30935;BME280;51033;42.648;23.292;2023-03-24T01:42:59;93908.84;;;7.48;54.74
30935;BME280;51033;42.648;23.292;2023-03-24T01:50:45;93902.50;;;7.30;55.32
30935;BME280;51033;42.648;23.292;2023-03-24T01:53:13;93901.00;;;7.24;55.18
30935;BME280;51033;42.648;23.292;2023-03-24T01:55:39;93914.31;;;7.38;54.92
30935;BME280;51033;42.648;23.292;2023-03-24T01:58:07;93905.16;;;7.30;54.82
30935;BME280;51033;42.648;23.292;2023-03-24T02:00:33;93898.53;;;7.14;55.14
30935;BME280;51033;42.648;23.292;2023-03-24T02:03:04;93911.97;;;7.18;55.48
30935;BME280;51033;42.648;23.292;2023-03-24T02:05:34;93919.53;;;7.24;55.64
30935;BME280;51033;42.648;23.292;2023-03-24T02:08:33;93913.75;;;7.22;55.17
30935;BME280;51033;42.648;23.292;2023-03-24T02:11:02;93883.69;;;7.00;55.22
30935;BME280;51033;42.648;23.292;2023-03-24T02:13:28;93906.63;;;7.23;54.94
30935;BME280;51033;42.648;23.292;2023-03-24T02:21:48;93924.63;;;7.21;54.74
30935;BME280;51033;42.648;23.292;2023-03-24T02:35:54;93925.50;;;6.98;55.89
30935;BME280;51033;42.648;23.292;2023-03-24T02:46:34;93908.66;;;6.94;56.09
30935;BME280;51033;42.648;23.292;2023-03-24T02:49:08;93907.72;;;7.03;56.01
30935;BME280;51033;42.648;23.292;2023-03-24T02:51:39;93893.19;;;7.01;56.04
30935;BME280;51033;42.648;23.292;2023-03-24T02:54:18;93877.22;;;6.92;56.49
30935;BME280;51033;42.648;23.292;2023-03-24T02:59:42;93882.84;;;7.04;56.17
30935;BME280;51033;42.648;23.292;2023-03-24T03:02:14;93890.78;;;6.85;56.90
30935;BME280;51033;42.648;23.292;2023-03-24T03:04:53;93884.19;;;7.02;56.67
30935;BME280;51033;42.648;23.292;2023-03-24T03:07:24;93883.31;;;7.06;56.36
30935;BME280;51033;42.648;23.292;2023-03-24T03:10:04;93874.59;;;7.06;56.25
30935;BME280;51033;42.648;23.292;2023-03-24T03:12:34;93889.13;;;7.08;56.69
30935;BME280;51033;42.648;23.292;2023-03-24T03:15:08;93886.97;;;7.10;56.71
30935;BME280;51033;42.648;23.292;2023-03-24T03:17:42;93879.91;;;7.06;56.56
30935;BME280;51033;42.648;23.292;2023-03-24T03:20:15;93877.97;;;7.11;56.73
30935;BME280;51033;42.648;23.292;2023-03-24T03:22:47;93888.19;;;7.18;56.38
30935;BME280;51033;42.648;23.292;2023-03-24T03:25:17;93886.00;;;7.20;56.44
30935;BME280;51033;42.648;23.292;2023-03-24T03:27:45;93888.25;;;7.13;56.53
30935;BME280;51033;42.648;23.292;2023-03-24T03:30:18;93876.78;;;7.04;56.96
30935;BME280;51033;42.648;23.292;2023-03-24T03:32:52;93887.28;;;7.09;56.69
30935;BME280;51033;42.648;23.292;2023-03-24T03:35:28;93880.50;;;7.03;57.06
30935;BME280;51033;42.648;23.292;2023-03-24T03:40:59;93875.19;;;7.03;57.12
30935;BME280;51033;42.648;23.292;2023-03-24T03:43:26;93872.03;;;7.01;57.09
30935;BME280;51033;42.648;23.292;2023-03-24T03:45:53;93875.19;;;7.03;56.91
30935;BME280;51033;42.648;23.292;2023-03-24T03:48:19;93857.44;;;6.90;56.80
30935;BME280;51033;42.648;23.292;2023-03-24T03:50:46;93867.69;;;6.91;57.04
30935;BME280;51033;42.648;23.292;2023-03-24T03:53:14;93860.78;;;6.76;57.02
30935;BME280;51033;42.648;23.292;2023-03-24T03:55:40;93867.50;;;6.88;57.05
30935;BME280;51033;42.648;23.292;2023-03-24T03:58:06;93867.06;;;6.80;56.93
30935;BME280;51033;42.648;23.292;2023-03-24T04:00:33;93886.41;;;6.95;56.42
30935;BME280;51033;42.648;23.292;2023-03-24T04:20:04;93899.50;;;6.67;57.09
30935;BME280;51033;42.648;23.292;2023-03-24T04:30:49;93900.50;;;6.71;56.40
30935;BME280;51033;42.648;23.292;2023-03-24T04:33:49;93894.50;;;6.66;56.75
30935;BME280;51033;42.648;23.292;2023-03-24T04:36:21;93895.72;;;6.73;56.42
30935;BME280;51033;42.648;23.292;2023-03-24T04:38:52;93887.88;;;6.68;56.55
30935;BME280;51033;42.648;23.292;2023-03-24T04:41:20;93908.94;;;6.73;56.39
30935;BME280;51033;42.648;23.292;2023-03-24T04:43:51;93892.25;;;6.59;56.93
30935;BME280;51033;42.648;23.292;2023-03-24T04:46:19;93903.75;;;6.68;57.05
30935;BME280;51033;42.648;23.292;2023-03-24T04:48:46;93914.78;;;6.70;56.92
30935;BME280;51033;42.648;23.292;2023-03-24T04:51:16;93926.81;;;6.81;56.74
30935;BME280;51033;42.648;23.292;2023-03-24T04:53:42;93928.97;;;6.79;56.76
30935;BME280;51033;42.648;23.292;2023-03-24T04:56:55;93930.50;;;6.80;56.94
30935;BME280;51033;42.648;23.292;2023-03-24T04:59:22;93935.16;;;6.89;57.13
30935;BME280;51033;42.648;23.292;2023-03-24T05:01:47;93935.97;;;6.89;57.36
30935;BME280;51033;42.648;23.292;2023-03-24T05:04:21;93943.03;;;6.94;57.39
30935;BME280;51033;42.648;23.292;2023-03-24T05:06:47;93935.66;;;6.91;57.84
30935;BME280;51033;42.648;23.292;2023-03-24T05:09:19;93927.88;;;6.99;58.20
30935;BME280;51033;42.648;23.292;2023-03-24T05:11:48;93933.56;;;7.06;58.25
30935;BME280;51033;42.648;23.292;2023-03-24T05:14:14;93928.50;;;7.10;58.31
30935;BME280;51033;42.648;23.292;2023-03-24T05:16:40;93935.03;;;7.31;58.64
30935;BME280;51033;42.648;23.292;2023-03-24T05:19:06;93935.94;;;7.40;59.01
30935;BME280;51033;42.648;23.292;2023-03-24T05:21:32;93936.84;;;7.49;59.08
30935;BME280;51033;42.648;23.292;2023-03-24T05:23:58;93916.03;;;7.61;58.18
30935;BME280;51033;42.648;23.292;2023-03-24T05:26:23;93946.47;;;7.78;58.45
30935;BME280;51033;42.648;23.292;2023-03-24T05:28:51;93935.56;;;7.79;58.06
30935;BME280;51033;42.648;23.292;2023-03-24T05:31:16;93919.38;;;7.67;58.29
30935;BME280;51033;42.648;23.292;2023-03-24T05:33:42;93938.09;;;7.70;58.43
30935;BME280;51033;42.648;23.292;2023-03-24T05:36:07;93955.88;;;7.84;58.79
30935;BME280;51033;42.648;23.292;2023-03-24T05:38:33;93945.00;;;7.85;58.35
30935;BME280;51033;42.648;23.292;2023-03-24T05:40:59;93930.69;;;7.86;57.91
30935;BME280;51033;42.648;23.292;2023-03-24T05:43:25;93942.69;;;8.11;57.72
30935;BME280;51033;42.648;23.292;2023-03-24T05:45:51;93924.81;;;8.03;57.90
30935;BME280;51033;42.648;23.292;2023-03-24T05:48:16;93945.91;;;8.35;57.29
30935;BME280;51033;42.648;23.292;2023-03-24T05:50:42;93933.25;;;8.32;57.07
30935;BME280;51033;42.648;23.292;2023-03-24T05:53:07;93937.09;;;8.40;57.27
30935;BME280;51033;42.648;23.292;2023-03-24T05:55:34;93940.69;;;8.57;56.71
30935;BME280;51033;42.648;23.292;2023-03-24T05:57:59;93935.56;;;8.61;56.37
30935;BME280;51033;42.648;23.292;2023-03-24T06:00:30;93943.44;;;8.52;57.15
30935;BME280;51033;42.648;23.292;2023-03-24T06:02:56;93939.00;;;8.62;57.00
30935;BME280;51033;42.648;23.292;2023-03-24T06:05:23;93936.56;;;8.51;57.12
30935;BME280;51033;42.648;23.292;2023-03-24T06:07:48;93959.03;;;8.68;57.59
30935;BME280;51033;42.648;23.292;2023-03-24T06:10:14;93959.63;;;8.78;56.56
30935;BME280;51033;42.648;23.292;2023-03-24T06:12:43;93947.59;;;8.31;57.91
30935;BME280;51033;42.648;23.292;2023-03-24T06:15:09;93915.84;;;7.39;61.04
30935;BME280;51033;42.648;23.292;2023-03-24T06:17:35;93908.72;;;7.99;59.04
30935;BME280;51033;42.648;23.292;2023-03-24T06:20:06;93951.50;;;8.34;58.71
30935;BME280;51033;42.648;23.292;2023-03-24T06:22:39;93954.34;;;8.24;60.03
30935;BME280;51033;42.648;23.292;2023-03-24T06:25:05;93958.38;;;8.48;58.52
30935;BME280;51033;42.648;23.292;2023-03-24T06:27:30;93939.72;;;8.53;58.66
30935;BME280;51033;42.648;23.292;2023-03-24T06:29:56;93964.78;;;8.97;56.85
30935;BME280;51033;42.648;23.292;2023-03-24T06:32:22;93952.38;;;8.70;58.09
30935;BME280;51033;42.648;23.292;2023-03-24T06:34:48;93949.28;;;8.77;58.42
30935;BME280;51033;42.648;23.292;2023-03-24T06:37:13;93942.47;;;8.98;56.91
30935;BME280;51033;42.648;23.292;2023-03-24T06:39:38;93960.56;;;9.32;56.65
30935;BME280;51033;42.648;23.292;2023-03-24T06:42:05;93956.50;;;9.34;56.11
30935;BME280;51033;42.648;23.292;2023-03-24T06:44:30;93958.22;;;9.30;56.52
30935;BME280;51033;42.648;23.292;2023-03-24T06:46:55;93962.94;;;9.33;56.22
30935;BME280;51033;42.648;23.292;2023-03-24T06:49:21;93964.69;;;8.88;57.62
30935;BME280;51033;42.648;23.292;2023-03-24T06:51:46;93970.19;;;8.92;57.66
30935;BME280;51033;42.648;23.292;2023-03-24T06:54:12;93975.03;;;8.90;57.55
30935;BME280;51033;42.648;23.292;2023-03-24T06:56:37;93955.09;;;8.79;57.37
30935;BME280;51033;42.648;23.292;2023-03-24T06:59:03;93951.63;;;8.92;57.88
30935;BME280;51033;42.648;23.292;2023-03-24T07:01:28;93969.13;;;9.51;55.97
30935;BME280;51033;42.648;23.292;2023-03-24T07:03:54;93964.19;;;9.14;56.52
30935;BME280;51033;42.648;23.292;2023-03-24T07:06:20;93956.56;;;8.71;57.58
30935;BME280;51033;42.648;23.292;2023-03-24T07:08:47;93971.97;;;9.32;56.21
30935;BME280;51033;42.648;23.292;2023-03-24T07:11:13;93979.09;;;9.45;55.68
30935;BME280;51033;42.648;23.292;2023-03-24T07:13:39;93962.56;;;9.49;54.65
30935;BME280;51033;42.648;23.292;2023-03-24T07:16:05;93964.72;;;9.24;56.29
30935;BME280;51033;42.648;23.292;2023-03-24T07:18:30;93947.72;;;8.76;56.86
30935;BME280;51033;42.648;23.292;2023-03-24T07:20:56;93976.59;;;9.49;55.90
30935;BME280;51033;42.648;23.292;2023-03-24T07:23:21;93976.31;;;9.28;55.88
30935;BME280;51033;42.648;23.292;2023-03-24T07:25:47;93976.09;;;9.38;55.80
30935;BME280;51033;42.648;23.292;2023-03-24T07:28:12;93987.22;;;9.27;55.53
30935;BME280;51033;42.648;23.292;2023-03-24T07:30:37;93979.81;;;9.37;55.01
30935;BME280;51033;42.648;23.292;2023-03-24T07:33:05;93992.13;;;9.56;54.91
30935;BME280;51033;42.648;23.292;2023-03-24T07:35:31;93980.94;;;9.89;53.38
30935;BME280;51033;42.648;23.292;2023-03-24T07:38:00;93983.31;;;9.91;54.45
30935;BME280;51033;42.648;23.292;2023-03-24T07:40:26;93969.41;;;10.25;52.66
30935;BME280;51033;42.648;23.292;2023-03-24T07:42:51;93968.41;;;10.52;52.04
30935;BME280;51033;42.648;23.292;2023-03-24T07:45:17;93973.38;;;10.36;52.10
30935;BME280;51033;42.648;23.292;2023-03-24T07:47:44;93960.25;;;10.40;51.43
30935;BME280;51033;42.648;23.292;2023-03-24T07:50:11;93969.91;;;10.75;50.67
30935;BME280;51033;42.648;23.292;2023-03-24T07:52:38;93962.00;;;10.53;49.97
30935;BME280;51033;42.648;23.292;2023-03-24T07:55:05;93957.31;;;10.50;51.53
30935;BME280;51033;42.648;23.292;2023-03-24T07:57:31;93967.34;;;10.61;50.34
30935;BME280;51033;42.648;23.292;2023-03-24T07:59:56;93958.25;;;10.54;50.98
30935;BME280;51033;42.648;23.292;2023-03-24T08:02:21;93954.84;;;10.62;50.97
30935;BME280;51033;42.648;23.292;2023-03-24T08:04:50;93955.34;;;10.81;51.04
30935;BME280;51033;42.648;23.292;2023-03-24T08:07:18;93961.31;;;10.87;51.22
30935;BME280;51033;42.648;23.292;2023-03-24T08:09:44;93954.59;;;10.89;50.74
30935;BME280;51033;42.648;23.292;2023-03-24T08:12:09;93927.44;;;10.13;52.22
30935;BME280;51033;42.648;23.292;2023-03-24T08:14:34;93937.78;;;10.63;51.69
30935;BME280;51033;42.648;23.292;2023-03-24T08:17:00;93955.81;;;10.66;52.35
30935;BME280;51033;42.648;23.292;2023-03-24T08:19:25;93953.72;;;10.46;52.17
30935;BME280;51033;42.648;23.292;2023-03-24T08:21:51;93947.06;;;10.91;50.69
30935;BME280;51033;42.648;23.292;2023-03-24T08:24:17;93935.34;;;11.01;50.50
30935;BME280;51033;42.648;23.292;2023-03-24T08:26:44;93943.66;;;11.34;49.56
30935;BME280;51033;42.648;23.292;2023-03-24T08:29:10;93946.63;;;11.41;49.60
30935;BME280;51033;42.648;23.292;2023-03-24T08:31:36;93946.16;;;11.22;49.81
30935;BME280;51033;42.648;23.292;2023-03-24T08:34:04;93932.03;;;10.78;51.25
30935;BME280;51033;42.648;23.292;2023-03-24T08:36:31;93939.84;;;10.66;51.56
30935;BME280;51033;42.648;23.292;2023-03-24T08:38:56;93938.47;;;11.03;50.51
30935;BME280;51033;42.648;23.292;2023-03-24T08:41:22;93936.34;;;10.48;51.97
30935;BME280;51033;42.648;23.292;2023-03-24T08:43:55;93924.34;;;10.77;52.20
30935;BME280;51033;42.648;23.292;2023-03-24T08:46:20;93895.09;;;10.68;51.42
30935;BME280;51033;42.648;23.292;2023-03-24T08:48:46;93925.78;;;10.83;52.26
30935;BME280;51033;42.648;23.292;2023-03-24T08:51:13;93923.75;;;10.80;50.95
30935;BME280;51033;42.648;23.292;2023-03-24T08:53:39;93911.09;;;10.85;49.98
30935;BME280;51033;42.648;23.292;2023-03-24T08:56:05;93912.81;;;10.90;50.94
30935;BME280;51033;42.648;23.292;2023-03-24T08:58:31;93917.66;;;10.88;50.12
30935;BME280;51033;42.648;23.292;2023-03-24T09:00:57;93919.22;;;10.97;50.98
30935;BME280;51033;42.648;23.292;2023-03-24T09:03:22;93906.84;;;11.27;49.78
30935;BME280;51033;42.648;23.292;2023-03-24T09:05:48;93910.94;;;11.07;49.11
30935;BME280;51033;42.648;23.292;2023-03-24T09:08:16;93901.31;;;11.75;47.56
30935;BME280;51033;42.648;23.292;2023-03-24T09:10:43;93882.25;;;11.56;47.57
30935;BME280;51033;42.648;23.292;2023-03-24T09:13:11;93895.44;;;11.18;49.89
30935;BME280;51033;42.648;23.292;2023-03-24T09:15:37;93894.28;;;11.71;47.65
30935;BME280;51033;42.648;23.292;2023-03-24T09:18:03;93888.72;;;11.93;47.55
30935;BME280;51033;42.648;23.292;2023-03-24T09:20:29;93880.84;;;11.41;48.35
30935;BME280;51033;42.648;23.292;2023-03-24T09:22:54;93868.13;;;11.47;47.83
30935;BME280;51033;42.648;23.292;2023-03-24T09:25:20;93886.94;;;11.68;48.12
30935;BME280;51033;42.648;23.292;2023-03-24T09:27:46;93881.69;;;11.80;47.53
30935;BME280;51033;42.648;23.292;2023-03-24T09:30:14;93882.09;;;12.08;45.97
30935;BME280;51033;42.648;23.292;2023-03-24T09:32:40;93880.84;;;12.05;46.02
30935;BME280;51033;42.648;23.292;2023-03-24T09:35:06;93873.69;;;11.88;46.16
30935;BME280;51033;42.648;23.292;2023-03-24T09:37:33;93869.69;;;12.41;46.97
30935;BME280;51033;42.648;23.292;2023-03-24T09:40:00;93870.00;;;12.69;44.78
30935;BME280;51033;42.648;23.292;2023-03-24T09:42:29;93865.31;;;12.86;44.02
30935;BME280;51033;42.648;23.292;2023-03-24T09:44:57;93851.34;;;12.89;44.75
30935;BME280;51033;42.648;23.292;2023-03-24T09:47:35;93861.44;;;13.05;44.68
30935;BME280;51033;42.648;23.292;2023-03-24T09:50:18;93852.56;;;13.13;44.62
30935;BME280;51033;42.648;23.292;2023-03-24T09:52:48;93824.53;;;12.57;43.61
30935;BME280;51033;42.648;23.292;2023-03-24T09:55:18;93835.81;;;12.33;45.96
30935;BME280;51033;42.648;23.292;2023-03-24T09:57:48;93835.63;;;12.67;46.12
30935;BME280;51033;42.648;23.292;2023-03-24T10:00:30;93849.13;;;12.71;44.16
30935;BME280;51033;42.648;23.292;2023-03-24T10:05:49;93823.34;;;13.28;41.30
30935;BME280;51033;42.648;23.292;2023-03-24T10:08:19;93825.88;;;13.58;40.89
30935;BME280;51033;42.648;23.292;2023-03-24T10:11:06;93829.19;;;13.88;42.15
30935;BME280;51033;42.648;23.292;2023-03-24T10:22:21;93829.03;;;13.60;40.10
30935;BME280;51033;42.648;23.292;2023-03-24T10:24:58;93822.28;;;13.87;39.74
30935;BME280;51033;42.648;23.292;2023-03-24T10:27:41;93824.06;;;13.95;39.23
30935;BME280;51033;42.648;23.292;2023-03-24T10:30:16;93824.06;;;13.50;40.06
30935;BME280;51033;42.648;23.292;2023-03-24T10:32:44;93829.81;;;13.60;39.88
30935;BME280;51033;42.648;23.292;2023-03-24T10:35:27;93818.03;;;13.86;40.01
30935;BME280;51033;42.648;23.292;2023-03-24T10:37:56;93821.19;;;14.12;40.05
30935;BME280;51033;42.648;23.292;2023-03-24T10:40:27;93811.81;;;14.30;38.64
30935;BME280;51033;42.648;23.292;2023-03-24T10:42:53;93812.47;;;14.39;38.38
30935;BME280;51033;42.648;23.292;2023-03-24T10:45:28;93805.78;;;14.45;37.79
30935;BME280;51033;42.648;23.292;2023-03-24T10:47:58;93816.38;;;14.54;38.62
30935;BME280;51033;42.648;23.292;2023-03-24T10:50:26;93798.91;;;14.08;38.63
30935;BME280;51033;42.648;23.292;2023-03-24T10:52:52;93792.84;;;14.35;38.61
30935;BME280;51033;42.648;23.292;2023-03-24T10:55:21;93808.34;;;14.30;37.95
30935;BME280;51033;42.648;23.292;2023-03-24T10:57:56;93795.53;;;14.11;38.55
30935;BME280;51033;42.648;23.292;2023-03-24T11:00:29;93787.50;;;13.99;38.04
30935;BME280;51033;42.648;23.292;2023-03-24T11:02:59;93796.53;;;14.31;37.50
30935;BME280;51033;42.648;23.292;2023-03-24T11:05:31;93787.06;;;14.21;37.59
30935;BME280;51033;42.648;23.292;2023-03-24T11:10:50;93796.22;;;14.84;35.80
30935;BME280;51033;42.648;23.292;2023-03-24T11:13:26;93791.25;;;14.71;35.95
30935;BME280;51033;42.648;23.292;2023-03-24T11:15:55;93779.00;;;14.45;35.98
30935;BME280;51033;42.648;23.292;2023-03-24T11:18:22;93777.63;;;14.76;35.03
30935;BME280;51033;42.648;23.292;2023-03-24T11:20:57;93786.22;;;14.81;34.33
30935;BME280;51033;42.648;23.292;2023-03-24T11:23:32;93780.16;;;15.12;34.52
30935;BME280;51033;42.648;23.292;2023-03-24T11:28:46;93763.66;;;15.26;35.54
30935;BME280;51033;42.648;23.292;2023-03-24T11:31:21;93756.22;;;15.47;33.93
30935;BME280;51033;42.648;23.292;2023-03-24T11:33:57;93757.47;;;15.37;34.70
30935;BME280;51033;42.648;23.292;2023-03-24T11:39:25;93751.13;;;14.58;34.69
30935;BME280;51033;42.648;23.292;2023-03-24T11:42:01;93749.09;;;14.95;34.72
30935;BME280;51033;42.648;23.292;2023-03-24T11:44:53;93751.25;;;14.90;34.62
30935;BME280;51033;42.648;23.292;2023-03-24T11:47:31;93745.50;;;15.47;34.87
30935;BME280;51033;42.648;23.292;2023-03-24T11:52:40;93731.16;;;15.71;33.67
30935;BME280;51033;42.648;23.292;2023-03-24T11:55:17;93734.59;;;15.87;33.47
30935;BME280;51033;42.648;23.292;2023-03-24T11:58:17;93727.16;;;15.80;33.72
30935;BME280;51033;42.648;23.292;2023-03-24T12:00:53;93720.59;;;15.94;33.80
30935;BME280;51033;42.648;23.292;2023-03-24T12:03:31;93720.00;;;16.19;33.29
30935;BME280;51033;42.648;23.292;2023-03-24T12:09:20;93719.88;;;16.12;33.37
30935;BME280;51033;42.648;23.292;2023-03-24T12:15:22;93710.75;;;15.51;33.73
30935;BME280;51033;42.648;23.292;2023-03-24T12:17:56;93716.28;;;15.58;33.26
30935;BME280;51033;42.648;23.292;2023-03-24T12:20:43;93705.16;;;16.06;33.65
30935;BME280;51033;42.648;23.292;2023-03-24T12:23:24;93698.38;;;15.77;33.12
30935;BME280;51033;42.648;23.292;2023-03-24T12:26:33;93696.75;;;15.73;33.15
30935;BME280;51033;42.648;23.292;2023-03-24T12:39:13;93668.56;;;16.33;32.54
30935;BME280;51033;42.648;23.292;2023-03-24T12:50:09;93658.97;;;15.97;33.32
30935;BME280;51033;42.648;23.292;2023-03-24T12:55:32;93647.66;;;16.23;32.70
30935;BME280;51033;42.648;23.292;2023-03-24T13:06:12;93635.66;;;16.55;31.57
30935;BME280;51033;42.648;23.292;2023-03-24T13:08:41;93629.06;;;16.91;32.24
30935;BME280;51033;42.648;23.292;2023-03-24T13:11:13;93614.50;;;17.38;32.53
30935;BME280;51033;42.648;23.292;2023-03-24T13:13:42;93618.41;;;17.40;31.36
30935;BME280;51033;42.648;23.292;2023-03-24T13:16:21;93610.44;;;17.47;31.09
30935;BME280;51033;42.648;23.292;2023-03-24T13:18:53;93609.16;;;17.64;30.93
30935;BME280;51033;42.648;23.292;2023-03-24T13:21:22;93614.94;;;17.17;29.65
30935;BME280;51033;42.648;23.292;2023-03-24T13:24:01;93616.22;;;17.27;30.18
30935;BME280;51033;42.648;23.292;2023-03-24T13:31:45;93615.88;;;18.03;28.09
30935;BME280;51033;42.648;23.292;2023-03-24T13:34:30;93612.09;;;18.08;28.22
30935;BME280;51033;42.648;23.292;2023-03-24T13:37:15;93600.25;;;17.86;28.02
30935;BME280;51033;42.648;23.292;2023-03-24T13:39:45;93601.19;;;17.45;28.21
30935;BME280;51033;42.648;23.292;2023-03-24T13:42:32;93604.25;;;17.96;29.85
30935;BME280;51033;42.648;23.292;2023-03-24T13:45:00;93599.50;;;18.16;28.27
30935;BME280;51033;42.648;23.292;2023-03-24T13:47:46;93601.66;;;18.33;28.61
30935;BME280;51033;42.648;23.292;2023-03-24T13:50:12;93598.19;;;18.32;29.30
30935;BME280;51033;42.648;23.292;2023-03-24T13:52:42;93574.38;;;18.04;27.02
30935;BME280;51033;42.648;23.292;2023-03-24T13:55:28;93586.28;;;17.77;26.33
30935;BME280;51033;42.648;23.292;2023-03-24T13:58:19;93587.75;;;17.45;26.74
30935;BME280;51033;42.648;23.292;2023-03-24T14:01:05;93592.13;;;17.56;26.76
30935;BME280;51033;42.648;23.292;2023-03-24T14:14:18;93566.66;;;18.33;27.02
30935;BME280;51033;42.648;23.292;2023-03-24T14:19:30;93568.69;;;17.83;26.12
30935;BME280;51033;42.648;23.292;2023-03-24T14:22:07;93568.63;;;17.80;26.47
30935;BME280;51033;42.648;23.292;2023-03-24T14:24:34;93569.22;;;17.66;26.33
30935;BME280;51033;42.648;23.292;2023-03-24T14:27:20;93557.78;;;17.73;26.50
30935;BME280;51033;42.648;23.292;2023-03-24T14:29:49;93570.53;;;17.27;27.20
30935;BME280;51033;42.648;23.292;2023-03-24T14:32:17;93564.28;;;17.45;26.87
30935;BME280;51033;42.648;23.292;2023-03-24T14:34:57;93555.38;;;17.64;26.73
30935;BME280;51033;42.648;23.292;2023-03-24T14:37:25;93572.09;;;18.07;26.02
30935;BME280;51033;42.648;23.292;2023-03-24T14:39:52;93571.53;;;18.24;26.30
30935;BME280;51033;42.648;23.292;2023-03-24T14:47:28;93565.22;;;18.76;28.17
30935;BME280;51033;42.648;23.292;2023-03-24T14:49:54;93550.16;;;18.71;28.47
30935;BME280;51033;42.648;23.292;2023-03-24T14:54:56;93558.44;;;18.93;27.29
30935;BME280;51033;42.648;23.292;2023-03-24T14:57:25;93557.75;;;19.03;28.14
30935;BME280;51033;42.648;23.292;2023-03-24T15:07:39;93539.63;;;19.00;28.35
30935;BME280;51033;42.648;23.292;2023-03-24T15:10:05;93541.56;;;19.03;29.93
30935;BME280;51033;42.648;23.292;2023-03-24T15:12:31;93556.25;;;19.05;29.17
30935;BME280;51033;42.648;23.292;2023-03-24T15:14:57;93552.41;;;19.06;28.96
30935;BME280;51033;42.648;23.292;2023-03-24T15:17:23;93552.34;;;19.03;29.94
30935;BME280;51033;42.648;23.292;2023-03-24T15:19:53;93548.84;;;18.99;29.46
30935;BME280;51033;42.648;23.292;2023-03-24T15:22:19;93540.25;;;18.82;30.19
30935;BME280;51033;42.648;23.292;2023-03-24T15:24:49;93546.41;;;18.83;29.58
30935;BME280;51033;42.648;23.292;2023-03-24T15:27:17;93549.28;;;19.01;29.31
30935;BME280;51033;42.648;23.292;2023-03-24T15:29:44;93542.59;;;18.87;28.91
30935;BME280;51033;42.648;23.292;2023-03-24T15:32:18;93553.72;;;18.82;29.09
30935;BME280;51033;42.648;23.292;2023-03-24T15:34:56;93552.97;;;18.85;29.02
30935;BME280;51033;42.648;23.292;2023-03-24T15:39:56;93536.31;;;18.73;29.90
30935;BME280;51033;42.648;23.292;2023-03-24T15:42:22;93555.25;;;18.80;30.77
30935;BME280;51033;42.648;23.292;2023-03-24T15:44:49;93552.47;;;18.73;31.25
30935;BME280;51033;42.648;23.292;2023-03-24T15:47:24;93550.81;;;18.65;31.48